カーナーク/チューレ空軍基地 の空港の天気 - METARとTAF

チューレ空軍基地 ( BGTL / THU ) - グリーンランド カーナーク
飛行場実況気象(Metar)
観測時間06/24 05:56 ADT (06/24 08:56 UTC)
風向・風速南東 10m/s
視程10km以上
天気現象
全天の8割程度の雲 雲底高度 1370m
気温2.5℃
湿度80%
気圧1008.3hPa
METARBGTL 240856Z AUTO 13019KT 9999 BKN045 03/M01 A2982 RMK AO2 SLP083 T00251006 58001 TSNO $
過去の天気等 Google飛行場航空写真 Wunderground天気予報

過去48時間のMETAR

飛行場予報(TAF)
データがありません